createdAt,value
2017-10-07T00:00:29.246Z,998.67
2017-10-07T00:01:39.258Z,998.64
2017-10-07T00:02:48.962Z,998.61
2017-10-07T00:03:59.314Z,998.62
2017-10-07T00:05:10.700Z,998.64
2017-10-07T00:06:21.036Z,998.59
2017-10-07T00:07:31.367Z,998.69
2017-10-07T00:08:41.387Z,998.61
2017-10-07T00:09:51.743Z,998.64
2017-10-07T00:11:01.770Z,998.66
2017-10-07T00:12:11.796Z,998.58
2017-10-07T00:13:21.815Z,998.65
2017-10-07T00:14:32.145Z,998.48
2017-10-07T00:15:41.863Z,998.67
2017-10-07T00:16:51.888Z,998.66
2017-10-07T00:18:02.245Z,998.63
2017-10-07T00:19:12.633Z,998.55
2017-10-07T00:20:23.074Z,998.57
2017-10-07T00:21:33.401Z,998.53
2017-10-07T00:22:43.414Z,998.57
2017-10-07T00:23:53.753Z,998.57
2017-10-07T00:25:04.136Z,998.51
2017-10-07T00:26:14.155Z,998.52
2017-10-07T00:27:24.532Z,998.59
2017-10-07T00:28:34.875Z,998.57
2017-10-07T00:29:45.224Z,998.56
2017-10-07T00:30:55.605Z,998.66
2017-10-07T00:32:05.934Z,998.56
2017-10-07T00:33:16.273Z,998.51
2017-10-07T00:34:26.610Z,998.55
2017-10-07T00:35:36.976Z,998.49
2017-10-07T00:36:47.375Z,998.5
2017-10-07T00:37:57.395Z,998.46
2017-10-07T00:39:08.363Z,998.51
2017-10-07T00:40:18.069Z,998.47
2017-10-07T00:41:28.099Z,998.45
2017-10-07T00:42:38.431Z,998.43
2017-10-07T00:43:48.809Z,998.49
2017-10-07T00:44:59.145Z,998.47
2017-10-07T00:46:09.495Z,998.4
2017-10-07T00:47:19.545Z,998.42
2017-10-07T00:48:29.935Z,998.49
2017-10-07T00:49:40.301Z,998.47
2017-10-07T00:50:50.663Z,998.46
2017-10-07T00:52:00.701Z,998.46
2017-10-07T00:53:10.735Z,998.51
2017-10-07T00:54:21.120Z,998.51
2017-10-07T00:55:31.127Z,998.48
2017-10-07T00:56:41.158Z,998.41
2017-10-07T00:57:51.501Z,998.53
2017-10-07T00:59:01.538Z,998.48
2017-10-07T01:00:11.938Z,998.57
2017-10-07T01:01:22.277Z,998.54
2017-10-07T01:02:31.973Z,998.5
2017-10-07T01:03:42.309Z,998.48
2017-10-07T01:04:52.637Z,998.43
2017-10-07T01:06:03.023Z,998.5
2017-10-07T01:07:13.352Z,998.52
2017-10-07T01:08:23.407Z,998.55
2017-10-07T01:09:33.734Z,998.48
2017-10-07T01:10:44.079Z,998.55
2017-10-07T01:11:54.678Z,998.42
2017-10-07T01:13:05.034Z,998.47
2017-10-07T01:14:15.068Z,998.52
2017-10-07T01:15:25.409Z,998.48
2017-10-07T01:16:34.803Z,998.54
2017-10-07T01:17:44.840Z,998.48
2017-10-07T01:18:55.180Z,998.49
2017-10-07T01:20:05.537Z,998.52
2017-10-07T01:21:15.550Z,998.52
2017-10-07T01:22:25.572Z,998.5
2017-10-07T01:23:35.945Z,998.46
2017-10-07T01:24:46.287Z,998.52
2017-10-07T01:25:56.318Z,998.54
2017-10-07T01:27:06.343Z,998.42
2017-10-07T01:28:16.695Z,998.46
2017-10-07T01:29:27.033Z,998.4
2017-10-07T01:30:37.375Z,998.43
2017-10-07T01:31:47.470Z,998.38
2017-10-07T01:32:57.805Z,998.45
2017-10-07T01:34:08.153Z,998.51
2017-10-07T01:35:18.497Z,998.44
2017-10-07T01:36:28.551Z,998.44
2017-10-07T01:37:38.578Z,998.45
2017-10-07T01:38:48.922Z,998.49
2017-10-07T01:39:59.247Z,998.44
2017-10-07T01:41:09.652Z,998.6
2017-10-07T01:42:19.677Z,998.55
2017-10-07T01:43:30.015Z,998.67
2017-10-07T01:44:39.732Z,998.63
2017-10-07T01:45:50.050Z,998.58
2017-10-07T01:47:00.450Z,998.57
2017-10-07T01:48:10.464Z,998.61
2017-10-07T01:49:20.806Z,998.61
2017-10-07T01:50:31.143Z,998.72
2017-10-07T01:51:41.485Z,998.7
2017-10-07T01:52:51.862Z,998.64
2017-10-07T01:54:02.215Z,998.66
2017-10-07T01:55:12.567Z,998.71
2017-10-07T01:56:22.580Z,998.76
2017-10-07T01:57:32.933Z,998.8
2017-10-07T01:58:43.324Z,998.79
2017-10-07T01:59:53.658Z,998.79
2017-10-07T02:01:04.001Z,998.81
2017-10-07T02:02:14.029Z,998.77
2017-10-07T02:03:24.046Z,998.88
2017-10-07T02:04:34.426Z,998.86
2017-10-07T02:05:44.758Z,998.9
2017-10-07T02:06:55.103Z,998.96
2017-10-07T02:08:05.471Z,998.95
2017-10-07T02:09:15.488Z,998.94
2017-10-07T02:10:25.825Z,998.93
2017-10-07T02:11:36.171Z,998.98
2017-10-07T02:12:46.209Z,999.01
2017-10-07T02:13:56.554Z,998.98
2017-10-07T02:15:06.952Z,999.05
2017-10-07T02:16:16.988Z,999
2017-10-07T02:17:27.331Z,999.12
2017-10-07T02:18:37.354Z,999.13
2017-10-07T02:19:47.385Z,999.15
2017-10-07T02:20:57.406Z,999.17
2017-10-07T02:22:07.748Z,999.16
2017-10-07T02:23:18.066Z,999.15
2017-10-07T02:24:28.396Z,999.28
2017-10-07T02:25:38.734Z,999.28
2017-10-07T02:26:49.086Z,999.14
2017-10-07T02:27:59.421Z,999.13
2017-10-07T02:29:09.431Z,999.2
2017-10-07T02:30:19.775Z,999.24
2017-10-07T02:31:29.806Z,999.27
2017-10-07T02:32:39.829Z,999.25
2017-10-07T02:33:50.206Z,999.27
2017-10-07T02:34:59.592Z,999.43
2017-10-07T02:36:09.931Z,999.33
2017-10-07T02:37:20.270Z,999.37
2017-10-07T02:38:30.305Z,999.35
2017-10-07T02:39:40.700Z,999.35
2017-10-07T02:40:50.726Z,999.3
2017-10-07T02:42:00.744Z,999.37
2017-10-07T02:43:11.075Z,999.43
2017-10-07T02:44:21.411Z,999.41
2017-10-07T02:45:31.487Z,999.48
2017-10-07T02:46:41.495Z,999.41
2017-10-07T02:47:51.836Z,999.42
2017-10-07T02:49:02.179Z,999.53
2017-10-07T02:50:12.197Z,999.5
2017-10-07T02:51:22.528Z,999.5
2017-10-07T02:52:32.863Z,999.54
2017-10-07T02:53:42.889Z,999.55
2017-10-07T02:54:53.230Z,999.55
2017-10-07T02:56:03.280Z,999.51
2017-10-07T02:57:13.310Z,999.46
2017-10-07T02:58:23.648Z,999.48
2017-10-07T02:59:33.985Z,999.57
2017-10-07T03:00:43.999Z,999.53
2017-10-07T03:01:54.329Z,999.58
2017-10-07T03:33:35.732Z,999.91
2017-10-07T03:34:46.054Z,999.84
2017-10-07T03:35:56.069Z,999.96
2017-10-07T03:37:06.412Z,999.95
2017-10-07T03:38:16.740Z,999.99
2017-10-07T03:39:27.118Z,1000
2017-10-07T03:40:37.137Z,999.98
2017-10-07T03:41:47.467Z,1000.01
2017-10-07T03:42:57.801Z,1000.05
2017-10-07T03:44:08.143Z,1000.12
2017-10-07T03:45:18.511Z,1000.08
2017-10-07T03:46:28.852Z,1000.12
2017-10-07T03:47:38.869Z,1000.19
2017-10-07T03:48:49.190Z,1000.24
2017-10-07T03:49:59.210Z,1000.18
2017-10-07T03:51:08.918Z,1000.23
2017-10-07T03:52:18.928Z,1000.22
2017-10-07T03:53:29.264Z,1000.31
2017-10-07T03:54:39.268Z,1000.31
2017-10-07T03:55:49.641Z,1000.34
2017-10-07T03:56:59.705Z,1000.41
2017-10-07T03:58:10.047Z,1000.3
2017-10-07T03:59:20.381Z,1000.31
2017-10-07T04:00:30.732Z,1000.38
2017-10-07T04:01:41.067Z,1000.38
2017-10-07T04:02:51.091Z,1000.39
2017-10-07T04:04:01.438Z,1000.5
2017-10-07T04:05:11.773Z,1000.45
2017-10-07T04:06:21.803Z,1000.44
2017-10-07T04:07:31.823Z,1000.47
2017-10-07T04:08:42.140Z,1000.44
2017-10-07T04:09:52.495Z,1000.45
2017-10-07T04:11:02.821Z,1000.43
2017-10-07T04:12:12.846Z,1000.49
2017-10-07T04:13:23.180Z,1000.47
2017-10-07T04:14:33.198Z,1000.51
2017-10-07T04:15:43.535Z,1000.47
2017-10-07T04:16:53.562Z,1000.53
2017-10-07T04:18:03.881Z,1000.51
2017-10-07T04:19:15.441Z,1000.54
2017-10-07T04:20:25.853Z,1000.54
2017-10-07T04:21:35.872Z,1000.5
2017-10-07T04:22:45.568Z,1000.5
2017-10-07T04:23:55.902Z,1000.58
2017-10-07T04:25:05.903Z,1000.51
2017-10-07T04:26:15.349Z,1000.59
2017-10-07T04:27:25.680Z,1000.56
2017-10-07T04:28:36.034Z,1000.59
2017-10-07T04:29:46.070Z,1000.59
2017-10-07T04:30:56.418Z,1000.64
2017-10-07T04:32:06.818Z,1000.64
2017-10-07T04:33:16.819Z,1000.67
2017-10-07T04:34:27.156Z,1000.67
2017-10-07T04:35:37.495Z,1000.66
2017-10-07T04:36:47.822Z,1000.64
2017-10-07T04:37:58.199Z,1000.63
2017-10-07T04:39:07.907Z,1000.64
2017-10-07T04:40:18.242Z,1000.63
2017-10-07T04:41:28.607Z,1000.7
2017-10-07T04:42:38.944Z,1000.68
2017-10-07T04:43:48.648Z,1000.7
2017-10-07T04:44:58.982Z,1000.68
2017-10-07T04:46:09.296Z,1000.7
2017-10-07T04:47:19.316Z,1000.7
2017-10-07T04:48:29.338Z,1000.73
2017-10-07T04:49:39.727Z,1000.83
2017-10-07T04:50:50.064Z,1000.76
2017-10-07T04:52:00.094Z,1000.75
2017-10-07T04:53:09.796Z,1000.81
2017-10-07T04:54:20.126Z,1000.8
2017-10-07T04:55:30.151Z,1000.85
2017-10-07T04:56:40.156Z,1000.86
2017-10-07T04:57:50.180Z,1000.83
2017-10-07T04:59:00.511Z,1000.79
2017-10-07T05:00:10.855Z,1000.81
2017-10-07T05:01:21.193Z,1000.87
2017-10-07T05:02:31.534Z,1000.89
2017-10-07T05:03:41.912Z,1000.92
2017-10-07T05:04:51.928Z,1000.97
2017-10-07T05:06:02.255Z,1000.9
2017-10-07T05:07:12.273Z,1000.88
2017-10-07T05:08:22.621Z,1000.89
2017-10-07T05:09:32.975Z,1000.91
2017-10-07T05:10:42.991Z,1000.93
2017-10-07T05:11:53.323Z,1001
2017-10-07T05:13:03.412Z,1000.99
2017-10-07T05:14:13.757Z,1001.01
2017-10-07T05:15:24.097Z,1001
2017-10-07T05:16:34.461Z,1001.03
2017-10-07T05:17:44.810Z,1000.99
2017-10-07T05:18:55.191Z,1000.99
2017-10-07T05:20:05.516Z,1001.03
2017-10-07T05:21:15.522Z,1001.08
2017-10-07T05:22:25.216Z,1001.05
2017-10-07T05:23:35.566Z,1001.1
2017-10-07T05:24:45.954Z,1001.06
2017-10-07T05:25:56.299Z,1001.12
2017-10-07T05:27:06.001Z,1001.12
2017-10-07T05:28:16.343Z,1001.1
2017-10-07T05:29:26.355Z,1001.07
2017-10-07T05:30:36.686Z,1001.09
2017-10-07T05:31:47.058Z,1001.1
2017-10-07T05:32:57.411Z,1001.11
2017-10-07T05:34:07.760Z,1001.11
2017-10-07T05:35:18.087Z,1001.14
2017-10-07T05:36:28.428Z,1001.14
2017-10-07T05:37:38.789Z,1001.18
2017-10-07T05:38:49.119Z,1001.21
2017-10-07T05:39:59.132Z,1001.23
2017-10-07T05:41:09.472Z,1001.21
2017-10-07T05:42:19.854Z,1001.22
2017-10-07T05:43:29.875Z,1001.27
2017-10-07T05:44:39.889Z,1001.27
2017-10-07T05:45:50.225Z,1001.25
2017-10-07T05:47:00.562Z,1001.26
2017-10-07T05:48:10.605Z,1001.34
2017-10-07T05:49:20.944Z,1001.26
2017-10-07T05:50:31.315Z,1001.3
2017-10-07T05:51:41.663Z,1001.29
2017-10-07T05:52:52.013Z,1001.36
2017-10-07T05:54:02.087Z,1001.32
2017-10-07T05:55:12.438Z,1001.42
2017-10-07T05:56:22.800Z,1001.32
2017-10-07T05:57:33.141Z,1001.39
2017-10-07T05:58:43.486Z,1001.47
2017-10-07T05:59:53.822Z,1001.51
2017-10-07T06:01:04.209Z,1001.44
2017-10-07T06:02:15.204Z,1001.48
2017-10-07T06:03:25.538Z,1001.56
2017-10-07T06:04:35.563Z,1001.49
2017-10-07T06:05:45.638Z,1001.52
2017-10-07T06:06:55.972Z,1001.6
2017-10-07T06:08:06.318Z,1001.57
2017-10-07T06:09:16.331Z,1001.5
2017-10-07T06:10:26.691Z,1001.53
2017-10-07T06:11:37.031Z,1001.54
2017-10-07T06:12:47.086Z,1001.6
2017-10-07T06:13:57.105Z,1001.54
2017-10-07T06:15:07.434Z,1001.62
2017-10-07T06:16:17.454Z,1001.62
2017-10-07T06:17:27.509Z,1001.62
2017-10-07T06:18:37.853Z,1001.66
2017-10-07T06:19:47.882Z,1001.67
2017-10-07T06:20:57.902Z,1001.73
2017-10-07T06:22:08.249Z,1001.64
2017-10-07T06:23:18.297Z,1001.68
2017-10-07T06:24:28.627Z,1001.79
2017-10-07T06:25:38.649Z,1001.72
2017-10-07T06:26:48.971Z,1001.85
2017-10-07T06:27:59.308Z,1001.85
2017-10-07T06:29:09.109Z,1001.87
2017-10-07T06:30:19.133Z,1001.87
2017-10-07T06:31:29.485Z,1001.77
2017-10-07T06:32:39.826Z,1001.77
2017-10-07T06:33:50.176Z,1001.87
2017-10-07T06:35:00.247Z,1001.75
2017-10-07T06:36:10.593Z,1001.83
2017-10-07T06:37:20.951Z,1001.72
2017-10-07T06:38:31.290Z,1001.78
2017-10-07T06:39:41.622Z,1001.74
2017-10-07T06:40:52.011Z,1001.82
2017-10-07T06:42:02.358Z,1001.85
2017-10-07T06:43:12.381Z,1001.78
2017-10-07T06:44:22.748Z,1001.75
2017-10-07T06:45:32.463Z,1001.78
2017-10-07T06:46:42.850Z,1001.74
2017-10-07T06:47:53.204Z,1001.76
2017-10-07T06:49:03.575Z,1001.81
2017-10-07T06:50:13.902Z,1001.81
2017-10-07T06:51:24.245Z,1001.8
2017-10-07T06:52:34.644Z,1001.81
2017-10-07T06:53:44.980Z,1001.84
2017-10-07T06:54:54.993Z,1001.96
2017-10-07T06:56:05.335Z,1001.84
2017-10-07T06:57:15.666Z,1001.89
2017-10-07T06:58:26.019Z,1001.86
2017-10-07T06:59:36.358Z,1001.81
2017-10-07T07:00:46.701Z,1001.91
2017-10-07T07:01:56.743Z,1001.84
2017-10-07T07:03:06.776Z,1001.85
2017-10-07T07:04:17.122Z,1001.86
2017-10-07T07:05:27.164Z,1001.86
2017-10-07T07:06:37.190Z,1001.86
2017-10-07T07:07:47.552Z,1001.88
2017-10-07T07:08:57.876Z,1001.95
2017-10-07T07:10:08.267Z,1001.9
2017-10-07T07:11:18.614Z,1001.81
2017-10-07T07:12:28.321Z,1001.87
2017-10-07T07:13:38.348Z,1001.94
2017-10-07T07:14:48.733Z,1001.81
2017-10-07T07:15:59.131Z,1001.9
2017-10-07T07:17:09.138Z,1001.83
2017-10-07T07:18:20.128Z,1001.91
2017-10-07T07:19:30.484Z,1001.83
2017-10-07T07:20:40.503Z,1001.88
2017-10-07T07:21:50.854Z,1001.92
2017-10-07T07:23:00.882Z,1001.93
2017-10-07T07:24:10.912Z,1001.87
2017-10-07T07:25:21.255Z,1001.96
2017-10-07T07:26:31.297Z,1001.95
2017-10-07T07:27:41.704Z,1001.87
2017-10-07T07:28:51.724Z,1001.93
2017-10-07T07:30:01.750Z,1001.94
2017-10-07T07:31:11.804Z,1001.86
2017-10-07T07:32:21.835Z,1001.87
2017-10-07T07:33:31.932Z,1002.03
2017-10-07T07:34:41.963Z,1002.03
2017-10-07T07:35:51.978Z,1001.92
2017-10-07T07:37:02.325Z,1002
2017-10-07T07:38:12.663Z,1002
2017-10-07T07:39:22.726Z,1002.04
2017-10-07T07:40:33.073Z,1002.07
2017-10-07T07:41:43.099Z,1002.06
2017-10-07T07:42:53.123Z,1002.08
2017-10-07T07:44:03.459Z,1002.04
2017-10-07T07:45:13.825Z,1002.07
2017-10-07T07:46:24.152Z,1002.03
2017-10-07T07:47:34.503Z,1002.04
2017-10-07T07:48:44.849Z,1002.05
2017-10-07T07:49:54.867Z,1002.01
2017-10-07T07:51:05.214Z,1002.07
2017-10-07T07:52:15.249Z,1002.08
2017-10-07T07:53:25.596Z,1002.09
2017-10-07T07:54:35.944Z,1002.05
2017-10-07T07:55:46.287Z,1002.02
2017-10-07T07:56:56.642Z,1002.21
2017-10-07T07:58:06.984Z,1002.19
2017-10-07T07:59:17.324Z,1002.13
2017-10-07T08:00:27.341Z,1002.09
2017-10-07T08:01:37.676Z,1002.18
2017-10-07T08:02:48.077Z,1002.11
2017-10-07T08:03:58.089Z,1002.1
2017-10-07T08:05:08.110Z,1002.16
2017-10-07T08:06:18.461Z,1002.21
2017-10-07T08:07:28.834Z,1002.07
2017-10-07T08:08:39.195Z,1002.2
2017-10-07T08:09:49.528Z,1002.23
2017-10-07T08:10:59.885Z,1002.2
2017-10-07T08:12:10.238Z,1002.29
2017-10-07T08:13:20.266Z,1002.34
2017-10-07T08:14:30.651Z,1002.35
2017-10-07T08:15:40.996Z,1002.36
2017-10-07T08:16:51.338Z,1002.46
2017-10-07T08:18:01.360Z,1002.35
2017-10-07T08:19:11.724Z,1002.41
2017-10-07T08:20:22.080Z,1002.36
2017-10-07T08:21:32.418Z,1002.43
2017-10-07T08:22:42.146Z,1002.42
2017-10-07T08:23:52.173Z,1002.41
2017-10-07T08:25:02.523Z,1002.43
2017-10-07T08:26:12.247Z,1002.49
2017-10-07T08:27:22.267Z,1002.49
2017-10-07T08:28:32.595Z,1002.56
2017-10-07T08:29:42.947Z,1002.55
2017-10-07T08:30:52.653Z,1002.54
2017-10-07T08:32:03.047Z,1002.61
2017-10-07T08:33:13.063Z,1002.53
2017-10-07T08:34:23.424Z,1002.52
2017-10-07T08:35:33.794Z,1002.64
2017-10-07T08:36:43.818Z,1002.58
2017-10-07T08:37:54.208Z,1002.57
2017-10-07T08:39:04.541Z,1002.57
2017-10-07T08:40:14.893Z,1002.56
2017-10-07T08:41:25.248Z,1002.55
2017-10-07T08:42:35.600Z,1002.61
2017-10-07T08:43:46.033Z,1002.58
2017-10-07T08:44:56.066Z,1002.61
2017-10-07T08:46:06.440Z,1002.61
2017-10-07T08:47:16.800Z,1002.63
2017-10-07T08:48:27.142Z,1002.66
2017-10-07T08:49:37.485Z,1002.62
2017-10-07T08:50:47.522Z,1002.66
2017-10-07T08:51:57.541Z,1002.61
2017-10-07T08:53:07.891Z,1002.53
2017-10-07T08:54:17.932Z,1002.58
2017-10-07T08:55:28.328Z,1002.53
2017-10-07T08:56:38.372Z,1002.63
2017-10-07T08:57:48.396Z,1002.61
2017-10-07T08:58:58.740Z,1002.57
2017-10-07T09:00:09.073Z,1002.48
2017-10-07T09:01:19.093Z,1002.56
2017-10-07T09:02:29.480Z,1002.46
2017-10-07T09:03:39.833Z,1002.47
2017-10-07T09:04:50.192Z,1002.46
2017-10-07T09:06:00.541Z,1002.5
2017-10-07T09:07:10.901Z,1002.4
2017-10-07T09:08:21.252Z,1002.39
2017-10-07T09:09:30.969Z,1002.41
2017-10-07T09:10:41.005Z,1002.46
2017-10-07T09:11:51.361Z,1002.41
2017-10-07T09:13:01.443Z,1002.34
2017-10-07T09:14:11.476Z,1002.36
2017-10-07T09:15:21.839Z,1002.39
2017-10-07T09:16:32.187Z,1002.33
2017-10-07T09:17:42.531Z,1002.37
2017-10-07T09:18:52.871Z,1002.4
2017-10-07T09:20:02.604Z,1002.36
2017-10-07T09:21:12.953Z,1002.35
2017-10-07T09:22:23.291Z,1002.25
2017-10-07T09:23:33.654Z,1002.35
2017-10-07T09:24:44.009Z,1002.35
2017-10-07T09:25:54.367Z,1002.35
2017-10-07T09:27:04.716Z,1002.36
2017-10-07T09:28:15.085Z,1002.44
2017-10-07T09:29:25.112Z,1002.48
2017-10-07T09:30:35.481Z,1002.45
2017-10-07T09:31:45.864Z,1002.41
2017-10-07T09:32:55.917Z,1002.33
2017-10-07T09:34:06.285Z,1002.36
2017-10-07T09:35:16.321Z,1002.41
2017-10-07T09:36:26.692Z,1002.36
2017-10-07T09:37:36.400Z,1002.38
2017-10-07T09:38:46.750Z,1002.31
2017-10-07T09:39:57.098Z,1002.35
2017-10-07T09:41:07.441Z,1002.27
2017-10-07T09:42:17.535Z,1002.34
2017-10-07T09:43:27.578Z,1002.26
2017-10-07T09:44:37.930Z,1002.29
2017-10-07T09:45:47.972Z,1002.26
2017-10-07T09:46:58.323Z,1002.34
2017-10-07T09:48:08.377Z,1002.3
2017-10-07T09:49:18.716Z,1002.28
2017-10-07T09:50:29.063Z,1002.24
2017-10-07T09:51:39.411Z,1002.21
2017-10-07T09:52:49.443Z,1002.25
2017-10-07T09:53:59.838Z,1002.2
2017-10-07T09:55:10.181Z,1002.21
2017-10-07T09:56:20.522Z,1002.22
2017-10-07T09:57:30.581Z,1002.28
2017-10-07T09:58:40.922Z,1002.28
2017-10-07T09:59:50.998Z,1002.26
2017-10-07T10:01:01.350Z,1002.27
2017-10-07T10:02:11.723Z,1002.31
2017-10-07T10:03:21.749Z,1002.3
2017-10-07T10:04:32.111Z,1002.35
2017-10-07T10:05:42.464Z,1002.34
2017-10-07T10:06:52.810Z,1002.34
2017-10-07T10:08:03.151Z,1002.36
2017-10-07T10:09:13.519Z,1002.33
2017-10-07T10:10:23.213Z,1002.32
2017-10-07T10:11:33.619Z,1002.27
2017-10-07T10:12:43.967Z,1002.33
2017-10-07T10:13:54.318Z,1002.27
2017-10-07T10:15:04.674Z,1002.27
2017-10-07T10:16:15.031Z,1002.29
2017-10-07T10:17:25.370Z,1002.25
2017-10-07T10:18:35.093Z,1002.28
2017-10-07T10:19:45.435Z,1002.32
2017-10-07T10:20:55.472Z,1002.27
2017-10-07T10:22:05.817Z,1002.27
2017-10-07T10:23:16.153Z,1002.32
2017-10-07T10:24:26.484Z,1002.25
2017-10-07T10:25:36.812Z,1002.29
2017-10-07T10:26:47.160Z,1002.21
2017-10-07T10:27:57.190Z,1002.29
2017-10-07T10:29:07.586Z,1002.28
2017-10-07T10:30:17.932Z,1002.27
2017-10-07T10:31:28.277Z,1002.2
2017-10-07T10:32:38.607Z,1002.24
2017-10-07T10:33:48.946Z,1002.23
2017-10-07T10:34:59.372Z,1002.2
2017-10-07T10:36:09.412Z,1002.23
2017-10-07T10:37:19.776Z,1002.18
2017-10-07T10:38:29.801Z,1002.18
2017-10-07T10:39:39.823Z,1002.26
2017-10-07T10:40:49.860Z,1002.17
2017-10-07T10:42:00.201Z,1002.2
2017-10-07T10:43:10.582Z,1002.23
2017-10-07T10:44:20.937Z,1002.19
2017-10-07T10:45:31.286Z,1002.13
2017-10-07T10:46:41.669Z,1002.21
2017-10-07T10:47:52.018Z,1002.19
2017-10-07T10:49:02.042Z,1002.21
2017-10-07T10:50:12.422Z,1002.18
2017-10-07T10:51:22.775Z,1002.21
2017-10-07T10:52:33.143Z,1002.16
2017-10-07T10:53:43.476Z,1002.19
2017-10-07T10:54:53.817Z,1002.12
2017-10-07T10:56:03.518Z,1002.11
2017-10-07T10:57:13.554Z,1002.15
2017-10-07T10:58:23.646Z,1002.16
2017-10-07T10:59:33.994Z,1002.16
2017-10-07T11:00:44.064Z,1002.08
2017-10-07T11:01:54.088Z,1002.05
2017-10-07T11:03:04.442Z,1002.01
2017-10-07T11:04:14.820Z,1002.06
2017-10-07T11:05:25.159Z,1002.02
2017-10-07T11:06:35.493Z,1001.98
2017-10-07T11:07:45.835Z,1002.02
2017-10-07T11:08:56.190Z,1001.97
2017-10-07T11:10:06.590Z,1001.97
2017-10-07T11:11:16.950Z,1001.86
2017-10-07T11:12:27.331Z,1001.79
2017-10-07T11:13:37.386Z,1001.83
2017-10-07T11:14:47.745Z,1001.76
2017-10-07T11:15:58.092Z,1001.78
2017-10-07T11:17:08.449Z,1001.7
2017-10-07T11:18:18.482Z,1001.67
2017-10-07T11:19:28.814Z,1001.74
2017-10-07T11:20:38.528Z,1001.75
2017-10-07T11:21:48.597Z,1001.68
2017-10-07T11:22:58.950Z,1001.57
2017-10-07T11:24:09.291Z,1001.54
2017-10-07T11:25:19.330Z,1001.58
2017-10-07T11:26:29.676Z,1001.53
2017-10-07T11:27:40.031Z,1001.56
2017-10-07T11:28:50.372Z,1001.5
2017-10-07T11:30:00.083Z,1001.53
2017-10-07T11:31:10.449Z,1001.47
2017-10-07T11:32:20.796Z,1001.43
2017-10-07T11:33:31.179Z,1001.46
2017-10-07T11:34:41.569Z,1001.42
2017-10-07T11:35:51.597Z,1001.44
2017-10-07T11:37:01.945Z,1001.46
2017-10-07T11:38:12.292Z,1001.35
2017-10-07T11:39:22.376Z,1001.39
2017-10-07T11:40:32.735Z,1001.35
2017-10-07T11:41:43.081Z,1001.38
2017-10-07T11:42:53.090Z,1001.37
2017-10-07T11:44:03.420Z,1001.3
2017-10-07T11:45:13.446Z,1001.4
2017-10-07T11:46:23.178Z,1001.32
2017-10-07T11:47:33.542Z,1001.28
2017-10-07T11:48:43.561Z,1001.25
2017-10-07T11:49:53.929Z,1001.3
2017-10-07T11:51:04.284Z,1001.29
2017-10-07T11:52:14.623Z,1001.3
2017-10-07T11:53:24.970Z,1001.3
2017-10-07T11:54:35.322Z,1001.31
2017-10-07T11:55:45.683Z,1001.35
2017-10-07T11:56:56.016Z,1001.33
2017-10-07T11:58:06.353Z,1001.41
2017-10-07T11:59:16.391Z,1001.38
2017-10-07T12:00:26.757Z,1001.46
2017-10-07T12:01:37.119Z,1001.44
2017-10-07T12:02:47.209Z,1001.36
2017-10-07T12:03:57.567Z,1001.44
2017-10-07T12:05:07.636Z,1001.45
2017-10-07T12:06:17.991Z,1001.43
2017-10-07T12:07:28.027Z,1001.42
2017-10-07T12:08:38.421Z,1001.47
2017-10-07T12:09:48.784Z,1001.51
2017-10-07T12:10:59.124Z,1001.48
2017-10-07T12:12:09.485Z,1001.47
2017-10-07T12:13:19.834Z,1001.4
2017-10-07T12:14:30.225Z,1001.48
2017-10-07T12:15:40.570Z,1001.42
2017-10-07T12:16:50.951Z,1001.37
2017-10-07T12:18:01.290Z,1001.42
2017-10-07T12:19:11.653Z,1001.39
2017-10-07T12:20:22.061Z,1001.29
2017-10-07T12:21:32.082Z,1001.36
2017-10-07T12:22:42.440Z,1001.38
2017-10-07T12:23:52.789Z,1001.38
2017-10-07T12:25:02.501Z,1001.39
2017-10-07T12:26:12.858Z,1001.42
2017-10-07T12:27:22.926Z,1001.31
2017-10-07T12:28:32.935Z,1001.29
2017-10-07T12:29:42.978Z,1001.35
2017-10-07T12:30:52.991Z,1001.28
2017-10-07T12:32:03.332Z,1001.27
2017-10-07T12:33:13.679Z,1001.26
2017-10-07T12:34:23.401Z,1001.21
2017-10-07T12:35:33.417Z,1001.23
2017-10-07T12:36:43.775Z,1001.17
2017-10-07T12:37:53.847Z,1001.19
2017-10-07T12:39:03.892Z,1001.13
2017-10-07T12:40:13.934Z,1001.11
2017-10-07T12:41:23.647Z,1001.06
2017-10-07T12:42:33.675Z,1001.01
2017-10-07T12:43:44.070Z,1001.15
2017-10-07T12:44:54.096Z,1001.12
2017-10-07T12:46:04.109Z,1001.18
2017-10-07T12:47:14.463Z,1001.16
2017-10-07T12:48:24.827Z,1001.29
2017-10-07T12:49:34.889Z,1001.21
2017-10-07T12:50:44.915Z,1001.22
2017-10-07T12:51:55.251Z,1001.19
2017-10-07T12:53:05.609Z,1001.17
2017-10-07T12:54:15.310Z,1001.23
2017-10-07T12:55:25.652Z,1001.24
2017-10-07T12:56:35.999Z,1001.27
2017-10-07T12:57:46.343Z,1001.24
2017-10-07T12:58:56.702Z,1001.18
2017-10-07T13:00:06.715Z,1001.27
2017-10-07T13:01:17.129Z,1001.19
2017-10-07T13:02:27.497Z,1001.16
2017-10-07T13:03:37.835Z,1001.19
2017-10-07T13:04:48.185Z,1001.16
2017-10-07T13:05:58.215Z,1001.2
2017-10-07T13:07:08.236Z,1001.17
2017-10-07T13:08:18.579Z,1001.15
2017-10-07T13:09:28.931Z,1001.1
2017-10-07T13:10:39.270Z,1001.12
2017-10-07T13:11:49.612Z,1001.08
2017-10-07T13:12:59.694Z,1001.11
2017-10-07T13:14:10.075Z,1001.14
2017-10-07T13:15:20.445Z,1001.13
2017-10-07T13:16:30.791Z,1001.12
2017-10-07T13:17:40.823Z,1001.1
2017-10-07T13:18:51.217Z,1001.07
2017-10-07T13:20:01.565Z,1001.1
2017-10-07T13:21:11.597Z,1001.09
2017-10-07T13:22:21.307Z,1001.14
2017-10-07T13:23:31.346Z,1001.1
2017-10-07T13:24:41.693Z,1001.11
2017-10-07T13:25:52.030Z,1001.02
2017-10-07T13:27:02.050Z,1001.06
2017-10-07T13:28:11.743Z,1001.01
2017-10-07T13:29:22.103Z,1000.97
2017-10-07T13:30:32.522Z,1000.97
2017-10-07T13:31:42.870Z,1001
2017-10-07T13:32:52.910Z,1001.02
2017-10-07T13:34:03.251Z,1000.93
2017-10-07T13:35:13.278Z,1000.93
2017-10-07T13:36:23.365Z,1000.86
2017-10-07T13:37:33.741Z,1000.83
2017-10-07T13:38:43.785Z,1000.75
2017-10-07T13:39:53.800Z,1000.81
2017-10-07T13:41:03.837Z,1000.84
2017-10-07T13:42:14.210Z,1000.86
2017-10-07T13:43:24.560Z,1000.89
2017-10-07T13:44:34.919Z,1000.82
2017-10-07T13:45:45.253Z,1000.76
2017-10-07T13:46:56.717Z,1000.78
2017-10-07T13:48:07.051Z,1000.76
2017-10-07T13:49:17.395Z,1000.74
2017-10-07T13:50:27.421Z,1000.79
2017-10-07T13:51:37.762Z,1000.75
2017-10-07T13:52:48.160Z,1000.73
2017-10-07T13:53:58.500Z,1000.75
2017-10-07T13:55:08.873Z,1000.72
2017-10-07T13:56:19.219Z,1000.66
2017-10-07T13:57:28.934Z,1000.69
2017-10-07T13:58:38.975Z,1000.72
2017-10-07T13:59:49.345Z,1000.62
2017-10-07T14:00:59.366Z,1000.66
2017-10-07T14:02:09.745Z,1000.66
2017-10-07T14:03:20.090Z,1000.72
2017-10-07T14:04:30.493Z,1000.71
2017-10-07T14:05:40.526Z,1000.86
2017-10-07T14:06:50.885Z,1000.67
2017-10-07T14:08:00.966Z,1000.69
2017-10-07T14:09:12.414Z,1000.67
2017-10-07T14:10:22.446Z,1000.64
2017-10-07T14:11:32.494Z,1000.65
2017-10-07T14:12:42.849Z,1000.66
2017-10-07T14:13:53.201Z,1000.69
2017-10-07T14:15:03.559Z,1000.73
2017-10-07T14:16:13.959Z,1000.77
2017-10-07T14:17:23.993Z,1000.71
2017-10-07T14:18:33.715Z,1000.73
2017-10-07T14:19:44.117Z,1000.7
2017-10-07T14:20:54.139Z,1000.7
2017-10-07T14:22:04.228Z,1000.68
2017-10-07T14:23:15.339Z,1000.7
2017-10-07T14:24:25.361Z,1000.69
2017-10-07T14:25:35.720Z,1000.73
2017-10-07T14:26:46.085Z,1000.74
2017-10-07T14:27:56.495Z,1000.57
2017-10-07T14:29:06.840Z,1000.67
2017-10-07T14:30:17.178Z,1000.56
2017-10-07T14:31:27.527Z,1000.61
2017-10-07T14:32:37.553Z,1000.65
2017-10-07T14:33:47.600Z,1000.67
2017-10-07T14:34:57.953Z,1000.64
2017-10-07T14:36:08.303Z,1000.65
2017-10-07T14:37:18.336Z,1000.66
2017-10-07T14:38:28.657Z,1000.71
2017-10-07T14:39:38.724Z,1000.69
2017-10-07T14:40:49.086Z,1000.7
2017-10-07T14:41:59.448Z,1000.71
2017-10-07T14:43:09.811Z,1000.7
2017-10-07T14:44:20.171Z,1000.63
2017-10-07T14:45:30.198Z,1000.71
2017-10-07T14:46:40.545Z,1000.67
2017-10-07T14:47:50.882Z,1000.64
2017-10-07T14:49:00.934Z,1000.63